createdAt,value
2017-04-16T00:00:50.533Z,30.38
2017-04-16T00:01:49.801Z,34.22
2017-04-16T00:02:49.099Z,33.53
2017-04-16T00:03:48.376Z,34.75
2017-04-16T00:04:47.642Z,31.33
2017-04-16T00:05:46.915Z,32.00
2017-04-16T00:06:46.186Z,31.95
2017-04-16T00:07:45.498Z,30.78
2017-04-16T00:08:44.774Z,29.23
2017-04-16T00:09:44.048Z,29.75
2017-04-16T00:17:37.827Z,26.50
2017-04-16T00:18:37.158Z,24.02
2017-04-16T00:19:36.720Z,26.73
2017-04-16T00:20:36.015Z,30.15
2017-04-16T00:21:35.310Z,26.83
2017-04-16T00:22:34.597Z,27.23
2017-04-16T00:23:33.876Z,28.23
2017-04-16T00:24:33.337Z,26.27
2017-04-16T00:25:32.632Z,26.72
2017-04-16T00:26:32.140Z,23.88
2017-04-16T00:27:31.584Z,23.22
2017-04-16T00:28:30.930Z,22.75
2017-04-16T00:29:30.318Z,22.92
2017-04-16T00:30:29.922Z,22.35
2017-04-16T00:31:29.190Z,20.90
2017-04-16T00:32:28.547Z,19.07
2017-04-16T00:33:28.935Z,17.58
2017-04-16T00:34:28.839Z,17.58
2017-04-16T00:35:28.942Z,17.05
2017-04-16T00:36:28.240Z,17.05
2017-04-16T00:37:27.533Z,17.23
2017-04-16T00:38:26.828Z,17.60
2017-04-16T00:39:26.137Z,16.55
2017-04-16T00:40:25.450Z,17.47
2017-04-16T00:41:24.724Z,19.58
2017-04-16T00:42:23.977Z,20.15
2017-04-16T00:43:23.287Z,19.97
2017-04-16T00:44:22.924Z,18.77
2017-04-16T00:45:22.203Z,18.72
2017-04-16T00:46:21.518Z,17.40
2017-04-16T00:47:20.788Z,18.68
2017-04-16T00:48:20.057Z,19.13
2017-04-16T00:49:19.329Z,19.73
2017-04-16T00:50:19.369Z,18.77
2017-04-16T00:51:18.625Z,18.77
2017-04-16T00:52:17.902Z,18.75
2017-04-16T00:53:17.211Z,18.87
2017-04-16T00:54:16.498Z,19.63
2017-04-16T00:55:15.929Z,19.15
2017-04-16T00:56:15.492Z,20.40
2017-04-16T00:57:15.543Z,19.27
2017-04-16T00:58:14.822Z,19.72
2017-04-16T00:59:14.146Z,19.30
2017-04-16T01:00:13.547Z,21.12
2017-04-16T01:01:18.215Z,18.48
2017-04-16T01:02:22.980Z,18.78
2017-04-16T01:03:22.231Z,18.15
2017-04-16T01:04:21.642Z,18.85
2017-04-16T01:05:21.084Z,18.28
2017-04-16T01:06:20.381Z,19.02
2017-04-16T01:07:19.724Z,17.40
2017-04-16T01:08:18.973Z,17.20
2017-04-16T01:09:18.241Z,16.90
2017-04-16T01:10:18.276Z,17.03
2017-04-16T01:11:17.541Z,15.35
2017-04-16T01:12:16.859Z,14.82
2017-04-16T01:13:16.164Z,15.85
2017-04-16T01:14:15.464Z,14.67
2017-04-16T01:15:15.719Z,13.90
2017-04-16T01:16:15.111Z,15.65
2017-04-16T01:17:15.515Z,13.38
2017-04-16T01:18:14.787Z,12.30
2017-04-16T01:19:14.092Z,11.48
2017-04-16T01:20:13.871Z,12.15
2017-04-16T01:21:13.142Z,13.03
2017-04-16T01:22:12.438Z,10.98
2017-04-16T01:23:11.763Z,10.43
2017-04-16T01:24:11.044Z,11.20
2017-04-16T01:25:10.312Z,11.02
2017-04-16T01:26:09.742Z,12.68
2017-04-16T01:27:09.852Z,8.37
2017-04-16T01:28:09.907Z,8.48
2017-04-16T01:29:09.176Z,8.85
2017-04-16T01:30:08.452Z,8.73
2017-04-16T01:31:07.759Z,9.33
2017-04-16T01:32:07.084Z,10.05
2017-04-16T01:33:06.368Z,9.82
2017-04-16T01:34:05.715Z,8.35
2017-04-16T01:35:05.000Z,7.82
2017-04-16T01:36:04.924Z,7.05
2017-04-16T01:37:04.242Z,5.02
2017-04-16T01:38:03.554Z,7.02
2017-04-16T01:39:02.910Z,6.23
2017-04-16T01:40:05.323Z,4.47
2017-04-16T01:41:04.673Z,5.78
2017-04-16T01:42:03.958Z,4.72
2017-04-16T01:43:03.199Z,4.42
2017-04-16T01:44:02.531Z,6.05
2017-04-16T01:45:01.888Z,5.00
2017-04-16T01:46:01.220Z,4.48
2017-04-16T01:47:00.526Z,4.85
2017-04-16T01:47:59.810Z,3.60
2017-04-16T01:48:59.144Z,3.80
2017-04-16T01:49:59.216Z,3.65
2017-04-16T01:50:58.532Z,3.90
2017-04-16T01:51:58.667Z,3.87
2017-04-16T01:52:57.951Z,4.07
2017-04-16T01:53:57.268Z,4.35
2017-04-16T01:54:56.591Z,3.68
2017-04-16T01:55:56.133Z,3.47
2017-04-16T01:56:55.498Z,4.22
2017-04-16T01:57:54.790Z,3.20
2017-04-16T01:58:55.108Z,3.08
2017-04-16T01:59:54.434Z,3.20
2017-04-16T02:00:53.765Z,3.80
2017-04-16T02:01:53.102Z,2.73
2017-04-16T02:02:52.435Z,2.98
2017-04-16T02:03:51.740Z,2.95
2017-04-16T02:04:51.004Z,4.13
2017-04-16T02:05:50.333Z,3.33
2017-04-16T02:06:49.718Z,3.08
2017-04-16T02:07:49.075Z,2.65
2017-04-16T02:08:48.382Z,2.40
2017-04-16T02:09:47.657Z,2.25
2017-04-16T02:10:46.899Z,2.53
2017-04-16T02:11:52.673Z,2.28
2017-04-16T02:12:51.954Z,3.70
2017-04-16T02:13:51.327Z,2.65
2017-04-16T02:14:51.184Z,2.72
2017-04-16T02:15:50.532Z,2.75
2017-04-16T02:16:49.822Z,2.78
2017-04-16T02:17:49.077Z,2.78
2017-04-16T02:18:48.338Z,3.12
2017-04-16T02:19:47.624Z,2.77
2017-04-16T02:20:46.933Z,2.92
2017-04-16T02:21:46.248Z,2.62
2017-04-16T02:22:45.539Z,2.67
2017-04-16T02:23:44.797Z,2.60
2017-04-16T02:24:44.072Z,3.33
2017-04-16T02:25:43.350Z,2.67
2017-04-16T02:26:43.075Z,2.67
2017-04-16T02:27:42.430Z,3.17
2017-04-16T02:28:41.807Z,3.32
2017-04-16T02:29:41.150Z,3.60
2017-04-16T02:30:40.440Z,2.82
2017-04-16T02:31:39.737Z,3.10
2017-04-16T02:32:39.059Z,2.37
2017-04-16T02:33:38.322Z,3.17
2017-04-16T02:34:37.574Z,2.75
2017-04-16T02:35:36.867Z,3.10
2017-04-16T02:36:36.119Z,2.97
2017-04-16T02:37:35.421Z,2.78
2017-04-16T02:38:35.105Z,2.33
2017-04-16T02:39:34.402Z,2.72
2017-04-16T02:40:33.693Z,2.30
2017-04-16T02:41:33.726Z,2.15
2017-04-16T02:42:33.080Z,2.83
2017-04-16T02:43:32.394Z,2.58
2017-04-16T02:44:31.666Z,2.10
2017-04-16T02:45:31.743Z,2.77
2017-04-16T02:46:31.070Z,2.95
2017-04-16T02:47:31.287Z,2.73
2017-04-16T02:48:30.564Z,1.90
2017-04-16T02:49:30.606Z,2.47
2017-04-16T02:50:29.966Z,2.17
2017-04-16T02:51:29.997Z,2.70
2017-04-16T02:52:30.187Z,1.62
2017-04-16T02:53:30.198Z,2.48
2017-04-16T02:54:29.511Z,1.98
2017-04-16T02:55:28.833Z,1.80
2017-04-16T02:56:28.121Z,1.92
2017-04-16T02:57:27.481Z,1.80
2017-04-16T02:58:26.748Z,1.85
2017-04-16T02:59:27.266Z,2.48
2017-04-16T03:00:26.556Z,2.18
2017-04-16T03:01:26.600Z,1.88
2017-04-16T03:02:26.089Z,2.58
2017-04-16T03:03:25.362Z,2.52
2017-04-16T03:04:24.646Z,1.85
2017-04-16T03:05:23.949Z,2.62
2017-04-16T03:06:23.266Z,2.47
2017-04-16T03:07:22.587Z,2.43
2017-04-16T03:08:21.943Z,2.28
2017-04-16T03:09:21.238Z,2.93
2017-04-16T03:10:20.561Z,2.12
2017-04-16T03:11:19.829Z,2.90
2017-04-16T03:12:19.418Z,2.47
2017-04-16T03:13:18.678Z,2.43
2017-04-16T03:14:17.970Z,2.07
2017-04-16T03:15:17.229Z,2.80
2017-04-16T03:16:17.283Z,1.80
2017-04-16T03:17:17.193Z,2.35
2017-04-16T03:18:16.488Z,2.60
2017-04-16T03:19:16.483Z,2.13
2017-04-16T03:20:15.768Z,2.42
2017-04-16T03:21:15.163Z,1.82
2017-04-16T03:22:14.428Z,3.18
2017-04-16T03:23:13.738Z,2.83
2017-04-16T03:24:13.042Z,2.85
2017-04-16T03:25:12.314Z,2.60
2017-04-16T03:26:11.589Z,2.40
2017-04-16T03:27:10.851Z,3.08
2017-04-16T03:28:10.114Z,2.68
2017-04-16T03:29:09.431Z,2.45
2017-04-16T03:30:09.467Z,3.33
2017-04-16T03:31:08.788Z,2.38
2017-04-16T03:32:08.797Z,3.17
2017-04-16T03:33:08.137Z,2.50
2017-04-16T03:34:08.165Z,2.35
2017-04-16T03:35:07.467Z,2.85
2017-04-16T03:36:06.767Z,2.67
2017-04-16T03:37:06.078Z,2.62
2017-04-16T03:38:05.404Z,2.97
2017-04-16T03:39:05.258Z,2.40
2017-04-16T03:40:12.385Z,2.80
2017-04-16T03:41:12.412Z,2.88
2017-04-16T03:42:11.728Z,2.48
2017-04-16T03:43:11.213Z,2.12
2017-04-16T03:44:10.449Z,3.62
2017-04-16T03:45:09.749Z,2.75
2017-04-16T03:46:09.117Z,2.48
2017-04-16T03:47:08.413Z,2.58
2017-04-16T03:48:07.718Z,2.55
2017-04-16T03:49:07.042Z,2.57
2017-04-16T03:50:06.353Z,1.97
2017-04-16T03:51:05.627Z,3.35
2017-04-16T03:52:04.885Z,3.60
2017-04-16T03:53:04.474Z,3.23
2017-04-16T03:54:03.752Z,3.05
2017-04-16T03:55:02.991Z,2.45
2017-04-16T03:56:02.265Z,2.62
2017-04-16T03:57:01.578Z,2.93
2017-04-16T03:58:06.985Z,2.73
2017-04-16T03:59:06.293Z,3.05
2017-04-16T04:00:06.916Z,3.80
2017-04-16T04:01:06.212Z,2.90
2017-04-16T04:02:05.507Z,2.92
2017-04-16T04:03:04.822Z,3.13
2017-04-16T04:04:04.171Z,2.63
2017-04-16T04:05:03.530Z,2.78
2017-04-16T04:06:03.696Z,3.42
2017-04-16T04:07:03.008Z,2.72
2017-04-16T04:08:02.297Z,2.55
2017-04-16T04:09:01.635Z,2.70
2017-04-16T04:10:00.942Z,3.12
2017-04-16T04:11:00.261Z,3.53
2017-04-16T04:11:59.520Z,3.43
2017-04-16T04:12:58.835Z,2.47
2017-04-16T04:13:58.126Z,3.42
2017-04-16T04:14:57.413Z,3.35
2017-04-16T04:15:56.703Z,3.15
2017-04-16T04:16:58.797Z,2.55
2017-04-16T04:17:58.939Z,3.00
2017-04-16T04:18:58.252Z,2.80
2017-04-16T04:19:57.528Z,3.77
2017-04-16T04:20:56.826Z,3.35
2017-04-16T04:21:56.482Z,3.77
2017-04-16T04:22:56.485Z,3.55
2017-04-16T04:23:56.547Z,3.05
2017-04-16T04:24:55.847Z,3.28
2017-04-16T04:25:55.171Z,3.13
2017-04-16T04:26:55.227Z,3.12
2017-04-16T04:27:54.556Z,2.85
2017-04-16T04:28:53.939Z,2.67
2017-04-16T04:29:53.520Z,2.38
2017-04-16T04:30:52.811Z,3.17
2017-04-16T04:31:52.097Z,3.40
2017-04-16T04:32:52.093Z,3.25
2017-04-16T04:33:52.253Z,3.22
2017-04-16T04:34:51.609Z,3.37
2017-04-16T04:35:50.869Z,2.58
2017-04-16T04:36:50.153Z,3.20
2017-04-16T04:37:49.431Z,2.77
2017-04-16T04:38:49.124Z,2.90
2017-04-16T04:39:48.408Z,2.33
2017-04-16T04:40:48.434Z,2.42
2017-04-16T04:41:47.753Z,2.95
2017-04-16T04:42:47.029Z,2.72
2017-04-16T04:43:46.388Z,2.70
2017-04-16T04:44:46.429Z,2.90
2017-04-16T04:45:45.736Z,2.72
2017-04-16T04:46:45.047Z,2.68
2017-04-16T04:47:44.335Z,2.58
2017-04-16T04:48:43.621Z,2.62
2017-04-16T04:49:42.925Z,2.48
2017-04-16T04:50:42.242Z,2.83
2017-04-16T04:51:41.557Z,3.65
2017-04-16T04:52:40.845Z,3.17
2017-04-16T04:53:40.085Z,2.62
2017-04-16T04:54:39.396Z,2.18
2017-04-16T04:55:39.516Z,2.30
2017-04-16T04:56:39.517Z,3.22
2017-04-16T04:57:39.558Z,2.77
2017-04-16T04:58:38.963Z,3.75
2017-04-16T04:59:38.258Z,3.00
2017-04-16T05:00:37.572Z,2.68
2017-04-16T05:01:36.839Z,3.22
2017-04-16T05:02:36.147Z,2.45
2017-04-16T05:03:35.482Z,2.33
2017-04-16T05:04:35.148Z,2.47
2017-04-16T05:05:34.456Z,2.40
2017-04-16T05:06:33.765Z,2.60
2017-04-16T05:07:33.045Z,2.97
2017-04-16T05:08:32.350Z,2.20
2017-04-16T05:09:31.649Z,2.70
2017-04-16T05:10:30.910Z,2.10
2017-04-16T05:11:30.177Z,1.92
2017-04-16T05:12:30.187Z,2.33
2017-04-16T05:13:30.239Z,1.75
2017-04-16T05:14:29.547Z,2.17
2017-04-16T05:15:28.818Z,2.28
2017-04-16T05:16:28.136Z,2.30
2017-04-16T05:17:27.432Z,2.65
2017-04-16T05:18:26.745Z,2.25
2017-04-16T05:19:26.523Z,2.62
2017-04-16T05:20:25.809Z,2.33
2017-04-16T05:21:25.064Z,2.27
2017-04-16T05:22:24.354Z,2.07
2017-04-16T05:23:23.702Z,1.73
2017-04-16T05:24:22.951Z,1.98
2017-04-16T05:25:22.279Z,1.88
2017-04-16T05:26:21.552Z,2.30
2017-04-16T05:27:20.845Z,1.72
2017-04-16T05:28:20.168Z,2.68
2017-04-16T05:29:20.269Z,2.15
2017-04-16T05:30:20.278Z,1.73
2017-04-16T05:31:20.301Z,2.07
2017-04-16T05:32:19.680Z,1.68
2017-04-16T05:33:19.694Z,2.08
2017-04-16T05:34:18.982Z,2.00
2017-04-16T05:35:18.278Z,1.80
2017-04-16T05:36:17.537Z,2.15
2017-04-16T05:37:16.822Z,1.50
2017-04-16T05:38:16.107Z,1.53
2017-04-16T05:39:15.480Z,1.42
2017-04-16T05:40:14.749Z,1.53
2017-04-16T05:41:14.014Z,1.28
2017-04-16T05:42:13.297Z,1.48
2017-04-16T05:43:12.657Z,1.87
2017-04-16T05:44:11.971Z,1.90
2017-04-16T05:45:11.293Z,1.27
2017-04-16T05:46:10.585Z,1.45
2017-04-16T05:47:09.863Z,1.78
2017-04-16T05:48:09.163Z,1.25
2017-04-16T05:49:08.474Z,0.98
2017-04-16T05:50:07.757Z,1.03
2017-04-16T05:51:07.014Z,2.87
2017-04-16T05:52:06.276Z,2.03
2017-04-16T05:53:05.594Z,1.87
2017-04-16T05:54:04.881Z,1.17
2017-04-16T05:55:04.185Z,1.28
2017-04-16T05:56:03.530Z,1.03
2017-04-16T05:57:02.765Z,1.00
2017-04-16T05:58:02.168Z,1.37
2017-04-16T05:59:01.435Z,1.17
2017-04-16T06:00:07.250Z,1.83
2017-04-16T06:01:06.539Z,1.78
2017-04-16T06:02:05.791Z,1.58
2017-04-16T06:03:05.035Z,1.43
2017-04-16T06:04:06.264Z,1.85
2017-04-16T06:05:05.852Z,1.87
2017-04-16T06:06:05.152Z,1.67
2017-04-16T06:07:04.397Z,2.05
2017-04-16T06:08:03.681Z,1.67
2017-04-16T06:09:02.969Z,1.70
2017-04-16T06:10:02.318Z,1.88
2017-04-16T06:11:02.429Z,2.07
2017-04-16T06:12:01.671Z,1.10
2017-04-16T06:13:00.923Z,1.37
2017-04-16T06:14:00.203Z,1.40
2017-04-16T06:15:00.088Z,1.67
2017-04-16T06:16:01.146Z,1.20
2017-04-16T06:17:00.582Z,1.15
2017-04-16T06:17:59.887Z,1.53
2017-04-16T06:18:59.181Z,1.20
2017-04-16T06:19:58.864Z,1.43
2017-04-16T06:20:58.193Z,1.82
2017-04-16T06:21:58.179Z,1.43
2017-04-16T06:22:57.417Z,1.42
2017-04-16T06:23:56.739Z,1.55
2017-04-16T06:24:56.117Z,1.58
2017-04-16T06:25:55.453Z,1.28
2017-04-16T06:26:54.752Z,1.10
2017-04-16T06:27:54.054Z,1.47
2017-04-16T06:28:53.413Z,1.25
2017-04-16T06:29:52.748Z,1.83
2017-04-16T06:30:52.071Z,1.52
2017-04-16T06:31:51.570Z,1.55
2017-04-16T06:32:51.067Z,1.37
2017-04-16T06:33:50.527Z,1.33
2017-04-16T06:34:49.882Z,1.80
2017-04-16T06:35:49.188Z,2.05
2017-04-16T06:36:48.509Z,1.77
2017-04-16T06:37:47.824Z,1.60
2017-04-16T06:38:47.124Z,2.40
2017-04-16T06:39:46.404Z,2.05
2017-04-16T06:40:45.713Z,1.83
2017-04-16T06:41:44.998Z,1.65
2017-04-16T06:42:44.285Z,2.05
2017-04-16T06:43:43.596Z,2.08
2017-04-16T06:44:42.915Z,1.47
2017-04-16T06:45:42.548Z,1.48
2017-04-16T06:46:42.624Z,1.70
2017-04-16T06:47:41.916Z,1.53
2017-04-16T06:48:41.224Z,1.43
2017-04-16T06:49:40.543Z,1.95
2017-04-16T06:50:39.813Z,1.72
2017-04-16T06:51:39.172Z,2.45
2017-04-16T06:52:38.498Z,1.58
2017-04-16T06:53:37.785Z,2.13
2017-04-16T06:54:37.082Z,1.35
2017-04-16T06:55:36.351Z,1.25
2017-04-16T06:56:35.691Z,2.12
2017-04-16T06:57:35.068Z,1.78
2017-04-16T06:58:34.376Z,1.82
2017-04-16T06:59:33.644Z,1.20
2017-04-16T07:00:33.011Z,1.13
2017-04-16T07:01:32.339Z,1.92
2017-04-16T07:02:31.707Z,1.72
2017-04-16T07:03:31.105Z,1.40
2017-04-16T07:04:30.432Z,2.15
2017-04-16T07:05:29.792Z,1.68
2017-04-16T07:06:29.171Z,1.30
2017-04-16T07:07:28.495Z,1.72
2017-04-16T07:08:28.489Z,1.23
2017-04-16T07:09:27.803Z,1.23
2017-04-16T07:10:27.873Z,0.97
2017-04-16T07:11:27.205Z,1.20
2017-04-16T07:12:26.550Z,0.90
2017-04-16T07:13:25.878Z,1.53
2017-04-16T07:14:25.958Z,1.18
2017-04-16T07:15:25.722Z,1.00
2017-04-16T07:16:25.145Z,1.18
2017-04-16T07:17:25.439Z,1.00
2017-04-16T07:18:24.799Z,1.28
2017-04-16T07:19:24.114Z,1.52
2017-04-16T07:20:23.417Z,1.60
2017-04-16T07:21:22.733Z,0.95
2017-04-16T07:22:25.193Z,1.30
2017-04-16T07:23:24.493Z,1.50
2017-04-16T07:24:24.863Z,0.97
2017-04-16T07:25:25.016Z,1.45
2017-04-16T07:26:24.721Z,1.28
2017-04-16T07:27:24.109Z,1.22
2017-04-16T07:28:23.452Z,1.42
2017-04-16T07:29:22.793Z,1.62
2017-04-16T07:30:22.187Z,1.42
2017-04-16T07:31:21.527Z,1.43
2017-04-16T07:32:20.887Z,1.25
2017-04-16T07:33:20.898Z,1.60
2017-04-16T07:34:20.295Z,1.30
2017-04-16T07:35:19.637Z,0.73
2017-04-16T07:36:19.077Z,1.03
2017-04-16T07:37:18.444Z,1.55
2017-04-16T07:38:17.805Z,1.50
2017-04-16T07:39:17.173Z,1.65
2017-04-16T07:40:16.460Z,1.37
2017-04-16T07:41:16.554Z,1.17
2017-04-16T07:42:18.915Z,1.37
2017-04-16T07:43:18.326Z,1.07
2017-04-16T07:44:17.675Z,1.43
2017-04-16T07:45:17.021Z,2.08
2017-04-16T07:46:16.370Z,1.45
2017-04-16T07:47:15.701Z,1.67
2017-04-16T07:48:15.044Z,1.80
2017-04-16T07:49:16.793Z,1.30
2017-04-16T07:50:16.900Z,1.07
2017-04-16T07:51:16.252Z,1.52
2017-04-16T07:52:15.724Z,1.23
2017-04-16T07:53:15.203Z,1.23
2017-04-16T07:54:14.564Z,1.27
2017-04-16T07:55:13.931Z,1.52
2017-04-16T07:56:13.280Z,1.37
2017-04-16T07:57:12.640Z,1.77
2017-04-16T07:58:12.003Z,1.57
2017-04-16T07:59:11.326Z,1.48
2017-04-16T08:00:10.701Z,1.20
2017-04-16T08:01:10.027Z,1.10
2017-04-16T08:02:09.405Z,1.23
2017-04-16T08:03:08.968Z,1.63
2017-04-16T08:04:08.317Z,1.07
2017-04-16T08:05:07.661Z,1.67
2017-04-16T08:06:06.976Z,1.53
2017-04-16T08:07:07.754Z,1.40
2017-04-16T08:08:07.089Z,1.40
2017-04-16T08:09:06.427Z,1.62
2017-04-16T08:10:05.806Z,1.68
2017-04-16T08:11:05.187Z,1.43
2017-04-16T08:12:04.561Z,1.38
2017-04-16T08:13:03.971Z,1.33
2017-04-16T08:15:08.137Z,1.32
2017-04-16T08:16:07.454Z,1.25
2017-04-16T08:17:06.769Z,3.40
2017-04-16T08:18:06.161Z,2.67
2017-04-16T08:19:06.256Z,1.38
2017-04-16T08:20:05.638Z,1.18
2017-04-16T08:21:05.887Z,1.47
2017-04-16T08:22:05.249Z,1.28
2017-04-16T08:23:05.705Z,1.37
2017-04-16T08:24:05.102Z,1.38
2017-04-16T08:25:04.395Z,1.37
2017-04-16T08:26:03.739Z,1.42
2017-04-16T08:27:03.029Z,1.53
2017-04-16T08:28:08.366Z,1.68
2017-04-16T08:29:07.676Z,1.18
2017-04-16T08:30:07.045Z,1.70
2017-04-16T08:31:06.380Z,1.48
2017-04-16T08:32:06.651Z,1.57
2017-04-16T08:33:06.213Z,1.85
2017-04-16T08:34:05.530Z,1.32
2017-04-16T08:35:05.598Z,1.65
2017-04-16T08:36:04.990Z,1.82
2017-04-16T08:37:04.299Z,1.67
2017-04-16T08:38:10.771Z,1.87
2017-04-16T08:39:10.116Z,1.63
2017-04-16T08:40:09.479Z,1.90
2017-04-16T08:41:08.842Z,1.63
2017-04-16T08:42:08.896Z,1.65
2017-04-16T08:43:13.101Z,1.37
2017-04-16T08:44:12.409Z,1.83
2017-04-16T08:45:11.715Z,1.67
2017-04-16T08:46:11.108Z,2.20
2017-04-16T08:47:10.396Z,1.78
2017-04-16T08:48:09.740Z,1.80
2017-04-16T08:49:09.447Z,1.77
2017-04-16T08:50:08.832Z,2.08
2017-04-16T08:51:08.130Z,1.87
2017-04-16T08:52:07.474Z,1.65
2017-04-16T08:53:06.822Z,1.42
2017-04-16T08:54:06.976Z,2.43
2017-04-16T08:55:06.266Z,1.87
2017-04-16T08:56:05.564Z,1.77
2017-04-16T08:57:04.869Z,2.17
2017-04-16T08:58:04.218Z,1.82
2017-04-16T08:59:03.550Z,2.07
2017-04-16T09:00:02.868Z,1.65
2017-04-16T09:01:02.941Z,2.20
2017-04-16T09:02:03.014Z,1.80
2017-04-16T09:03:02.391Z,1.72
2017-04-16T09:04:01.710Z,2.10
2017-04-16T09:05:05.145Z,1.93
2017-04-16T09:06:04.508Z,1.55
2017-04-16T09:07:03.828Z,2.10
2017-04-16T09:08:03.243Z,1.83
2017-04-16T09:09:02.571Z,1.77
2017-04-16T09:10:01.909Z,1.58
2017-04-16T09:11:01.279Z,1.53
2017-04-16T09:12:04.518Z,1.65
2017-04-16T09:13:04.192Z,1.48
2017-04-16T09:14:03.536Z,1.58
2017-04-16T09:15:02.859Z,1.62
2017-04-16T09:16:02.204Z,1.65
2017-04-16T09:17:02.634Z,1.50
2017-04-16T09:18:02.002Z,2.17
2017-04-16T09:19:01.388Z,2.37
2017-04-16T09:20:00.751Z,1.72
2017-04-16T09:21:00.201Z,2.28
2017-04-16T09:21:59.594Z,1.58
2017-04-16T09:22:58.892Z,2.60
2017-04-16T09:23:58.260Z,2.42
2017-04-16T09:24:57.555Z,2.10
2017-04-16T09:25:57.329Z,3.13
2017-04-16T09:26:56.633Z,1.37
2017-04-16T09:27:56.827Z,1.88
2017-04-16T09:28:56.164Z,1.93
2017-04-16T09:29:55.504Z,1.90
2017-04-16T09:30:54.825Z,2.15
2017-04-16T09:31:54.211Z,2.03
2017-04-16T09:32:53.537Z,2.07
2017-04-16T09:33:52.858Z,2.17
2017-04-16T09:34:52.109Z,1.97
2017-04-16T09:35:52.177Z,1.78
2017-04-16T09:36:51.466Z,1.88
2017-04-16T09:37:50.853Z,1.70
2017-04-16T09:38:50.140Z,2.68
2017-04-16T09:39:49.481Z,2.15
2017-04-16T09:40:48.752Z,2.35
2017-04-16T09:41:48.078Z,2.55
2017-04-16T09:42:47.890Z,1.93
2017-04-16T09:43:47.199Z,2.28
2017-04-16T09:44:46.473Z,2.45
2017-04-16T09:45:45.791Z,2.68
2017-04-16T09:46:45.121Z,2.10
2017-04-16T09:47:44.518Z,1.43
2017-04-16T09:48:45.075Z,2.05
2017-04-16T09:49:44.406Z,2.07
2017-04-16T09:50:43.716Z,1.75
2017-04-16T09:51:43.760Z,1.90
2017-04-16T09:52:43.039Z,1.82
2017-04-16T09:53:42.666Z,1.98
2017-04-16T09:54:41.961Z,1.95
2017-04-16T09:55:41.252Z,1.72
2017-04-16T09:56:41.124Z,2.13
2017-04-16T09:57:40.529Z,2.03
2017-04-16T09:58:40.404Z,2.38
2017-04-16T09:59:39.797Z,2.37
2017-04-16T10:00:39.106Z,2.05
2017-04-16T10:01:38.429Z,2.08
2017-04-16T10:02:38.029Z,1.75
2017-04-16T10:03:37.289Z,2.65
2017-04-16T10:04:36.593Z,1.90
2017-04-16T10:05:35.939Z,3.58
2017-04-16T10:06:35.216Z,2.03
2017-04-16T10:07:34.449Z,2.80
2017-04-16T10:08:33.746Z,2.30
2017-04-16T10:09:33.050Z,2.05
2017-04-16T10:10:32.349Z,2.53
2017-04-16T10:11:31.643Z,1.83
2017-04-16T10:12:30.967Z,2.10
2017-04-16T10:13:30.293Z,2.62
2017-04-16T10:14:32.689Z,2.02
2017-04-16T10:15:32.035Z,2.28
2017-04-16T10:16:31.356Z,2.15
2017-04-16T10:17:31.560Z,1.90
2017-04-16T10:18:30.873Z,2.03
2017-04-16T10:19:31.429Z,1.72
2017-04-16T10:20:33.743Z,1.55
2017-04-16T10:21:33.074Z,2.03
2017-04-16T10:22:34.776Z,2.17
2017-04-16T10:23:36.890Z,2.62
2017-04-16T10:24:41.279Z,1.97
2017-04-16T10:25:45.139Z,1.75
2017-04-16T10:26:45.076Z,1.70
2017-04-16T10:27:45.175Z,2.22
2017-04-16T10:28:44.509Z,2.02
2017-04-16T10:29:43.847Z,2.07
2017-04-16T10:30:43.173Z,1.97
2017-04-16T10:31:42.423Z,2.13
2017-04-16T10:32:41.756Z,1.80
2017-04-16T10:33:41.021Z,1.90
2017-04-16T10:34:40.351Z,1.73
2017-04-16T10:35:39.806Z,2.02
2017-04-16T10:36:39.066Z,1.90
2017-04-16T10:37:38.390Z,2.35
2017-04-16T10:38:37.719Z,1.83
2017-04-16T10:39:37.104Z,2.47
2017-04-16T10:40:36.391Z,2.15
2017-04-16T10:41:35.702Z,1.90
2017-04-16T10:42:34.979Z,2.17
2017-04-16T10:43:34.276Z,1.92
2017-04-16T10:44:33.593Z,2.02
2017-04-16T10:45:33.617Z,1.73
2017-04-16T10:46:33.653Z,1.80
2017-04-16T10:47:33.676Z,1.73
2017-04-16T10:48:32.973Z,2.28
2017-04-16T10:49:33.104Z,1.75
2017-04-16T10:50:32.445Z,1.85
2017-04-16T10:51:31.739Z,1.92
2017-04-16T10:52:31.054Z,1.57
2017-04-16T10:53:30.367Z,1.73
2017-04-16T10:54:29.735Z,1.63
2017-04-16T10:55:29.107Z,2.02
2017-04-16T10:56:29.095Z,1.20
2017-04-16T10:57:28.439Z,1.25
2017-04-16T10:58:28.481Z,1.78
2017-04-16T10:59:27.776Z,1.83
2017-04-16T11:00:27.114Z,1.83
2017-04-16T11:01:26.433Z,1.62
2017-04-16T11:02:25.708Z,1.47
2017-04-16T11:03:25.327Z,1.40
2017-04-16T11:04:24.707Z,1.42
2017-04-16T11:05:24.128Z,1.58
2017-04-16T11:06:23.419Z,1.60
2017-04-16T11:07:22.708Z,1.75
2017-04-16T11:08:22.026Z,1.52
2017-04-16T11:09:21.331Z,1.82
2017-04-16T11:10:20.613Z,2.00
2017-04-16T11:11:20.827Z,2.08
2017-04-16T11:12:20.770Z,1.87
2017-04-16T11:13:20.089Z,2.50
2017-04-16T11:14:20.113Z,1.50
2017-04-16T11:15:20.129Z,1.78
2017-04-16T11:16:19.499Z,1.73
2017-04-16T11:17:18.772Z,1.48
2017-04-16T11:18:18.078Z,1.87
2017-04-16T11:19:17.371Z,1.60
2017-04-16T11:20:16.721Z,1.60
2017-04-16T11:21:16.055Z,1.23
2017-04-16T11:22:17.152Z,1.68
2017-04-16T11:23:16.510Z,1.47
2017-04-16T11:24:15.962Z,1.35
2017-04-16T11:25:15.317Z,1.43
2017-04-16T11:26:14.602Z,1.25
2017-04-16T11:27:13.917Z,1.30
2017-04-16T11:28:13.666Z,1.37
2017-04-16T11:29:13.109Z,1.42
2017-04-16T11:30:12.727Z,1.22
2017-04-16T11:31:12.028Z,1.47
2017-04-16T11:32:11.325Z,1.85
2017-04-16T11:33:10.606Z,1.50
2017-04-16T11:34:09.870Z,1.43
2017-04-16T11:35:09.252Z,1.57
2017-04-16T11:36:09.160Z,1.60
2017-04-16T11:37:08.466Z,1.20
2017-04-16T11:38:07.832Z,1.15
2017-04-16T11:39:07.114Z,1.45
2017-04-16T11:40:06.405Z,1.55
2017-04-16T11:41:05.763Z,1.25
2017-04-16T11:42:05.804Z,1.83
2017-04-16T11:43:05.113Z,1.43
2017-04-16T11:44:04.419Z,1.40
2017-04-16T11:45:03.918Z,1.25
2017-04-16T11:46:03.247Z,1.32
2017-04-16T11:47:02.543Z,1.17
2017-04-16T11:48:01.860Z,1.70
2017-04-16T11:49:01.157Z,1.75
2017-04-16T11:50:00.410Z,1.82
2017-04-16T11:50:59.786Z,1.63
2017-04-16T11:52:06.503Z,1.55
2017-04-16T11:53:05.855Z,1.72
2017-04-16T11:54:05.126Z,2.13
2017-04-16T11:55:04.448Z,1.83
2017-04-16T11:56:03.816Z,1.57
2017-04-16T11:57:03.116Z,1.72
2017-04-16T11:58:02.413Z,1.85
2017-04-16T11:59:01.672Z,1.88
2017-04-16T12:00:01.076Z,2.43
2017-04-16T12:01:00.398Z,1.68
2017-04-16T12:01:59.713Z,1.83
2017-04-16T12:02:59.023Z,1.67
2017-04-16T12:03:58.336Z,1.70
2017-04-16T12:04:57.605Z,1.55
2017-04-16T12:05:56.920Z,1.50
2017-04-16T12:06:56.186Z,1.43
2017-04-16T12:07:55.456Z,1.52
2017-04-16T12:08:54.764Z,1.45
2017-04-16T12:09:54.152Z,1.00
2017-04-16T12:10:53.444Z,1.03
2017-04-16T12:11:52.687Z,1.07
2017-04-16T12:12:51.953Z,1.10
2017-04-16T12:13:51.959Z,1.17
2017-04-16T12:14:51.235Z,1.22
2017-04-16T12:15:50.502Z,1.12
2017-04-16T12:16:50.034Z,1.18
2017-04-16T12:17:49.333Z,1.32
2017-04-16T12:18:48.667Z,1.57
2017-04-16T12:19:48.016Z,1.28
2017-04-16T12:20:47.280Z,1.47
2017-04-16T12:21:47.370Z,1.30
2017-04-16T12:22:46.766Z,1.38
2017-04-16T12:23:46.124Z,0.95
2017-04-16T12:24:45.425Z,1.07
2017-04-16T12:25:44.737Z,1.12
2017-04-16T12:26:44.031Z,1.25
2017-04-16T12:27:44.824Z,1.30
2017-04-16T12:28:44.152Z,1.05
2017-04-16T12:29:44.198Z,0.97
2017-04-16T12:30:43.550Z,0.90
2017-04-16T12:31:42.860Z,1.18
2017-04-16T12:32:42.128Z,0.97
2017-04-16T12:33:41.502Z,1.42
2017-04-16T12:34:40.793Z,1.20
2017-04-16T12:35:40.213Z,1.00
2017-04-16T12:36:39.573Z,1.00
2017-04-16T12:37:38.895Z,0.65
2017-04-16T12:38:38.276Z,0.92
2017-04-16T12:39:37.576Z,0.77
2017-04-16T12:40:36.876Z,0.70
2017-04-16T12:41:36.206Z,0.62
2017-04-16T12:42:35.492Z,0.90
2017-04-16T12:43:34.782Z,0.65
2017-04-16T12:44:34.066Z,0.55
2017-04-16T12:45:33.389Z,0.70
2017-04-16T12:46:33.131Z,1.13
2017-04-16T12:47:32.866Z,0.57
2017-04-16T12:48:32.228Z,0.77
2017-04-16T12:49:32.723Z,0.80
2017-04-16T12:50:31.985Z,0.63
2017-04-16T12:51:31.623Z,0.88
2017-04-16T12:52:31.664Z,0.88
2017-04-16T12:53:31.715Z,0.88
2017-04-16T12:54:31.022Z,1.23
2017-04-16T12:55:30.395Z,0.70
2017-04-16T12:56:29.804Z,0.68
2017-04-16T12:57:29.921Z,0.72
2017-04-16T12:58:29.926Z,1.25
2017-04-16T12:59:29.256Z,1.13
2017-04-16T13:00:28.588Z,1.22
2017-04-16T13:01:27.853Z,0.77
2017-04-16T13:02:27.977Z,0.80
2017-04-16T13:03:33.555Z,1.20
2017-04-16T13:04:32.988Z,0.90
2017-04-16T13:05:32.337Z,1.07
2017-04-16T13:06:31.673Z,0.98
2017-04-16T13:07:31.275Z,1.07
2017-04-16T13:08:30.597Z,1.00
2017-04-16T13:09:29.906Z,1.22
2017-04-16T13:10:29.242Z,0.87
2017-04-16T13:11:28.502Z,1.32
2017-04-16T13:12:27.794Z,1.38
2017-04-16T13:13:27.106Z,1.30
2017-04-16T13:14:26.431Z,0.97
2017-04-16T13:15:25.699Z,0.98
2017-04-16T13:16:25.004Z,1.07
2017-04-16T13:17:24.353Z,0.88
2017-04-16T13:18:23.727Z,0.90